Time;durP1;ratioP1;P1;durP2;ratioP2;P2;SDS_P1;SDS_P2;PMS_P1;PMS_P2;Temp;Humidity;BMP_temperature;BMP_pressure;BME280_temperature;BME280_humidity;BME280_pressure;Samples;Min_cycle;Max_cycle;Signal;HPM_P1;HPM_P2
2023/05/19 04:08:45;;;;;;;5.40;2.97;;;10.40;99.90;;;;;;4993610;28;20223;-62
2023/05/19 04:11:11;;;;;;;5.85;2.08;;;10.40;99.90;;;;;;4977889;28;20220;-63
2023/05/19 04:13:37;;;;;;;1.80;1.67;;;10.40;99.90;;;;;;4994777;28;20204;-63
2023/05/19 04:16:03;;;;;;;1.70;1.60;;;10.30;99.90;;;;;;4976295;28;20286;-63
2023/05/19 04:18:28;;;;;;;2.20;1.77;;;10.30;99.90;;;;;;4975590;28;20260;-62
2023/05/19 04:20:54;;;;;;;1.40;1.30;;;10.30;99.90;;;;;;4975413;28;20235;-62
2023/05/19 04:23:20;;;;;;;1.10;1.10;;;10.30;99.90;;;;;;4975010;28;20172;-62
2023/05/19 04:25:47;;;;;;;1.30;1.30;;;10.40;99.90;;;;;;4975212;28;20243;-62
2023/05/19 04:28:13;;;;;;;1.73;1.63;;;10.40;99.90;;;;;;4975480;28;20176;-63
2023/05/19 04:30:39;;;;;;;2.72;2.60;;;10.40;99.90;;;;;;4975370;28;20169;-63
2023/05/19 04:33:06;;;;;;;2.00;1.90;;;10.40;99.90;;;;;;4975209;28;20165;-61
2023/05/19 04:35:32;;;;;;;1.13;1.13;;;10.50;99.90;;;;;;4973726;28;20433;-61
2023/05/19 04:37:57;;;;;;;1.73;1.63;;;10.50;99.90;;;;;;4975370;28;20538;-64
2023/05/19 04:40:23;;;;;;;1.40;1.30;;;10.50;99.90;;;;;;4975475;28;20179;-62
2023/05/19 04:42:51;;;;;;;2.53;1.83;;;10.60;99.90;;;;;;4975077;28;20234;-61
2023/05/19 04:45:17;;;;;;;1.92;1.80;;;10.60;99.90;;;;;;4974637;28;20204;-63
2023/05/19 04:47:43;;;;;;;1.90;1.80;;;10.70;99.90;;;;;;4975077;28;20169;-63
2023/05/19 04:50:10;;;;;;;1.50;1.40;;;10.70;99.90;;;;;;4975032;28;20183;-62
2023/05/19 04:52:36;;;;;;;1.75;1.65;;;10.70;99.90;;;;;;4974820;28;20184;-62
2023/05/19 04:55:02;;;;;;;1.85;1.75;;;10.80;99.90;;;;;;4974046;28;20195;-62
2023/05/19 04:57:28;;;;;;;4.40;1.67;;;10.90;99.90;;;;;;4974624;28;20253;-63
2023/05/19 04:59:58;;;;;;;1.90;1.80;;;10.90;99.90;;;;;;4974909;28;20656;-62
2023/05/19 05:02:26;;;;;;;1.60;1.50;;;11.00;99.90;;;;;;4974403;28;20182;-62
2023/05/19 05:04:53;;;;;;;1.98;1.80;;;11.10;99.90;;;;;;4974267;28;20228;-62
2023/05/19 05:07:20;;;;;;;2.40;1.70;;;11.20;99.90;;;;;;4974520;28;20660;-62
2023/05/19 05:09:47;;;;;;;2.53;1.97;;;11.30;99.90;;;;;;4974566;28;20420;-64
2023/05/19 05:12:13;;;;;;;2.72;1.98;;;11.40;99.90;;;;;;4974580;28;20448;-62
2023/05/19 05:14:39;;;;;;;1.60;1.50;;;11.50;99.90;;;;;;4974075;28;20693;-63
2023/05/19 05:17:06;;;;;;;2.80;2.60;;;11.60;99.90;;;;;;4974440;28;20415;-64
2023/05/19 05:19:32;;;;;;;1.60;1.50;;;11.80;99.90;;;;;;4974415;28;20518;-68
2023/05/19 05:21:58;;;;;;;4.30;1.80;;;11.90;99.90;;;;;;4974375;28;20864;-62
2023/05/19 05:24:24;;;;;;;2.00;1.90;;;12.00;99.90;;;;;;4974068;28;20440;-62
2023/05/19 05:26:50;;;;;;;1.70;1.60;;;12.10;99.90;;;;;;4974348;28;20406;-62
2023/05/19 05:29:16;;;;;;;2.17;1.37;;;12.20;99.90;;;;;;4974602;28;20409;-62
2023/05/19 05:31:41;;;;;;;1.90;1.80;;;12.40;99.90;;;;;;4974300;28;20910;-62
2023/05/19 05:34:07;;;;;;;1.40;1.23;;;12.60;99.90;;;;;;4974163;28;20202;-61
2023/05/19 05:36:33;;;;;;;1.73;1.63;;;12.70;99.90;;;;;;4974321;28;20645;-61
2023/05/19 05:39:01;;;;;;;1.27;1.27;;;12.80;99.90;;;;;;4974336;28;20643;-61
2023/05/19 05:41:33;;;;;;;1.47;1.40;;;12.80;99.90;;;;;;4974433;28;20469;-60
2023/05/19 05:44:03;;;;;;;4.13;1.83;;;12.90;99.90;;;;;;4973871;28;20407;-60
2023/05/19 05:46:29;;;;;;;1.43;1.27;;;13.10;99.90;;;;;;4956788;28;20429;-60
2023/05/19 05:48:55;;;;;;;1.77;1.67;;;13.20;99.90;;;;;;4974212;28;20411;-60
2023/05/19 05:51:21;;;;;;;1.40;1.30;;;13.40;99.90;;;;;;4973934;28;20411;-61
2023/05/19 05:53:51;;;;;;;1.53;1.43;;;13.50;99.90;;;;;;4973515;28;20378;-61
2023/05/19 05:56:17;;;;;;;1.30;1.30;;;13.70;99.90;;;;;;4974123;28;20394;-60
2023/05/19 05:58:42;;;;;;;2.60;1.60;;;13.80;99.90;;;;;;4974072;28;20469;-61
2023/05/19 06:01:11;;;;;;;1.53;1.43;;;13.90;99.90;;;;;;4974110;28;20414;-61
2023/05/19 06:03:43;;;;;;;2.43;2.23;;;14.00;99.80;;;;;;4973807;28;20434;-62
2023/05/19 06:06:09;;;;;;;3.63;2.20;;;14.00;99.70;;;;;;4973782;28;20462;-61
2023/05/19 06:08:35;;;;;;;2.00;1.80;;;14.00;99.70;;;;;;4977274;28;20466;-60
2023/05/19 06:11:07;;;;;;;2.70;1.77;;;14.10;99.80;;;;;;4977652;28;20407;-60
2023/05/19 06:13:33;;;;;;;1.03;1.03;;;14.20;99.40;;;;;;4977357;28;20180;-61
2023/05/19 06:15:58;;;;;;;1.83;1.70;;;14.40;99.20;;;;;;4977684;28;20909;-60
2023/05/19 06:18:24;;;;;;;1.90;1.80;;;14.40;99.10;;;;;;4977685;28;20439;-60
2023/05/19 06:20:50;;;;;;;2.17;1.73;;;14.60;98.90;;;;;;4977722;28;20176;-61
2023/05/19 06:23:15;;;;;;;1.60;1.50;;;14.70;98.40;;;;;;4977326;28;20230;-62
2023/05/19 06:25:41;;;;;;;1.43;1.33;;;14.70;98.50;;;;;;4977266;28;20208;-61
2023/05/19 06:28:06;;;;;;;2.30;1.60;;;14.80;98.40;;;;;;4977227;28;20282;-62
2023/05/19 06:30:32;;;;;;;2.37;2.00;;;14.80;98.40;;;;;;4977367;28;20196;-61
2023/05/19 06:32:58;;;;;;;1.77;1.47;;;14.90;98.00;;;;;;4977301;28;20183;-62
2023/05/19 06:35:23;;;;;;;2.30;1.30;;;15.00;98.10;;;;;;4977095;28;20195;-61
2023/05/19 06:37:49;;;;;;;1.93;1.83;;;15.00;98.60;;;;;;4977348;28;20180;-61
2023/05/19 06:40:14;;;;;;;1.97;1.80;;;15.10;98.20;;;;;;4977036;28;20517;-62
2023/05/19 06:42:40;;;;;;;1.77;1.67;;;15.20;98.10;;;;;;4976907;28;20701;-62
2023/05/19 06:45:06;;;;;;;1.93;1.83;;;15.30;97.80;;;;;;4975563;28;20263;-61
2023/05/19 06:47:32;;;;;;;1.53;1.47;;;15.40;97.60;;;;;;4976780;28;20172;-61
2023/05/19 06:49:57;;;;;;;1.67;1.57;;;15.40;97.50;;;;;;4976930;28;20903;-61
2023/05/19 06:52:23;;;;;;;2.50;2.00;;;15.50;97.70;;;;;;4976613;28;20651;-62
2023/05/19 06:54:49;;;;;;;1.70;1.60;;;15.70;97.40;;;;;;4976026;28;20197;-61
2023/05/19 06:57:15;;;;;;;1.47;1.37;;;15.80;97.40;;;;;;4977023;28;20414;-62
2023/05/19 06:59:42;;;;;;;2.03;1.60;;;15.90;97.00;;;;;;4976862;28;20500;-61
2023/05/19 07:02:08;;;;;;;2.20;2.00;;;16.00;97.20;;;;;;4977001;28;20186;-61
2023/05/19 07:04:35;;;;;;;1.80;1.40;;;16.00;96.80;;;;;;4976451;28;20516;-61
2023/05/19 07:07:00;;;;;;;1.80;1.70;;;16.10;96.60;;;;;;4976561;28;20933;-61
2023/05/19 07:09:26;;;;;;;2.60;1.70;;;16.10;96.50;;;;;;4976798;28;20480;-62
2023/05/19 07:11:51;;;;;;;1.40;1.30;;;16.00;96.30;;;;;;4976028;28;20179;-61
2023/05/19 07:14:17;;;;;;;2.27;2.17;;;16.00;96.50;;;;;;4976241;28;20556;-62
2023/05/19 07:16:43;;;;;;;1.90;1.80;;;15.90;96.50;;;;;;4976707;28;20181;-62
2023/05/19 07:19:08;;;;;;;2.13;2.03;;;15.90;96.50;;;;;;4975717;28;20704;-62
2023/05/19 07:21:34;;;;;;;1.60;1.50;;;15.90;96.10;;;;;;4976539;28;20725;-62
2023/05/19 07:23:59;;;;;;;2.00;1.60;;;15.70;96.20;;;;;;4975973;28;20174;-63
2023/05/19 07:26:26;;;;;;;1.83;1.73;;;15.60;96.80;;;;;;4976226;28;20669;-62
2023/05/19 07:28:51;;;;;;;2.30;2.10;;;15.60;96.60;;;;;;4959051;28;20220;-62
2023/05/19 07:31:17;;;;;;;3.07;1.57;;;15.50;96.50;;;;;;4976339;28;20775;-61
2023/05/19 07:33:42;;;;;;;1.80;1.70;;;15.50;96.40;;;;;;4975977;28;20182;-62
2023/05/19 07:36:09;;;;;;;1.60;1.50;;;15.40;96.30;;;;;;4976068;28;20658;-63
2023/05/19 07:38:35;;;;;;;1.83;1.73;;;15.40;96.50;;;;;;4976044;28;20643;-62
2023/05/19 07:41:01;;;;;;;5.23;1.43;;;15.40;96.60;;;;;;4958778;28;20460;-61
2023/05/19 07:43:27;;;;;;;1.70;1.43;;;15.30;96.20;;;;;;4976108;28;20180;-62
2023/05/19 07:45:54;;;;;;;1.90;1.80;;;15.30;96.70;;;;;;4975883;28;20984;-61
2023/05/19 07:48:21;;;;;;;2.63;1.70;;;15.40;96.90;;;;;;4976090;28;20181;-61
2023/05/19 07:50:47;;;;;;;1.40;1.30;;;15.60;96.40;;;;;;4976079;28;20387;-63
2023/05/19 07:53:13;;;;;;;1.67;1.57;;;15.60;96.10;;;;;;4957937;28;20419;-62
2023/05/19 07:55:39;;;;;;;1.57;1.47;;;15.60;96.10;;;;;;4975862;28;20507;-62
2023/05/19 07:58:05;;;;;;;3.53;2.07;;;15.60;95.90;;;;;;4975891;28;20422;-62
2023/05/19 08:00:31;;;;;;;2.90;2.53;;;15.60;96.00;;;;;;4976264;28;20402;-62
2023/05/19 08:02:56;;;;;;;1.77;1.67;;;15.50;96.00;;;;;;4975670;28;20709;-62
2023/05/19 08:05:22;;;;;;;2.13;1.80;;;15.50;95.90;;;;;;4975078;28;20208;-62
2023/05/19 08:07:48;;;;;;;1.47;1.30;;;15.40;95.90;;;;;;4975463;28;20192;-62
2023/05/19 08:10:14;;;;;;;1.70;1.60;;;15.40;96.20;;;;;;4975523;28;20404;-61
2023/05/19 08:12:40;;;;;;;1.97;1.53;;;15.30;96.10;;;;;;4975566;28;20774;-60
2023/05/19 08:15:06;;;;;;;1.90;1.80;;;15.30;96.40;;;;;;4975192;28;20693;-60
2023/05/19 08:17:32;;;;;;;1.80;1.63;;;15.30;96.20;;;;;;4975483;28;20661;-60
2023/05/19 08:19:59;;;;;;;2.63;2.43;;;15.30;96.10;;;;;;4975562;28;20419;-60
2023/05/19 08:22:24;;;;;;;2.10;1.50;;;15.40;96.20;;;;;;4975559;28;20202;-60
2023/05/19 08:24:50;;;;;;;1.57;1.47;;;15.30;96.10;;;;;;4975003;28;20468;-60
2023/05/19 08:27:16;;;;;;;1.50;1.37;;;15.40;96.20;;;;;;4975265;28;20511;-61
2023/05/19 08:29:42;;;;;;;1.07;1.07;;;15.40;96.20;;;;;;4975352;28;20165;-60
2023/05/19 08:32:08;;;;;;;8.60;2.30;;;15.40;96.20;;;;;;4975320;28;20170;-61
2023/05/19 08:34:33;;;;;;;1.33;1.30;;;15.40;96.50;;;;;;4974801;28;20454;-60
2023/05/19 08:36:59;;;;;;;1.70;1.60;;;15.50;96.40;;;;;;4975053;28;20506;-61
2023/05/19 08:39:25;;;;;;;1.10;1.00;;;15.50;96.40;;;;;;4975093;28;20173;-62
2023/05/19 08:41:52;;;;;;;1.70;1.40;;;15.50;96.60;;;;;;4975067;28;20200;-61
2023/05/19 08:44:18;;;;;;;1.90;1.80;;;15.50;96.30;;;;;;4974384;28;20418;-61
2023/05/19 08:46:46;;;;;;;1.30;1.20;;;15.70;96.20;;;;;;4975063;28;20464;-61
2023/05/19 08:49:13;;;;;;;1.70;1.60;;;15.70;96.00;;;;;;4975227;28;20184;-62
2023/05/19 08:51:57;;;;;;;1.77;1.67;;;15.70;95.90;;;;;;4974953;28;20858;-62
2023/05/19 08:54:27;;;;;;;3.77;2.53;;;15.70;96.10;;;;;;4974669;28;20434;-61
2023/05/19 08:56:53;;;;;;;1.83;1.60;;;15.60;95.90;;;;;;4975029;28;20420;-61
2023/05/19 08:59:20;;;;;;;1.43;1.33;;;15.50;96.30;;;;;;4974928;28;20749;-61
2023/05/19 09:01:47;;;;;;;2.93;2.50;;;15.50;96.60;;;;;;4957485;28;20716;-60
2023/05/19 09:04:14;;;;;;;2.07;1.97;;;15.60;96.50;;;;;;4974372;28;20451;-60
2023/05/19 09:06:39;;;;;;;1.20;1.20;;;15.70;96.30;;;;;;4957195;28;20958;-60
2023/05/19 09:09:06;;;;;;;1.20;1.10;;;15.70;96.20;;;;;;4974705;28;20559;-60
2023/05/19 09:11:32;;;;;;;3.07;1.60;;;15.70;96.10;;;;;;4974507;28;20516;-60
2023/05/19 09:13:58;;;;;;;2.07;1.30;;;15.70;96.30;;;;;;4974125;28;20405;-60
2023/05/19 09:16:24;;;;;;;2.10;2.00;;;15.70;96.00;;;;;;4974553;28;20407;-60
2023/05/19 09:18:55;;;;;;;1.83;1.13;;;15.80;95.70;;;;;;4974658;28;20258;-61
2023/05/19 09:21:29;;;;;;;4.03;1.40;;;15.80;95.50;;;;;;4974724;28;20426;-61
2023/05/19 09:23:55;;;;;;;1.53;1.43;;;15.70;95.30;;;;;;4974312;28;20445;-61
2023/05/19 09:26:22;;;;;;;2.33;2.23;;;15.60;95.40;;;;;;4974608;28;20457;-62
2023/05/19 09:28:48;;;;;;;1.93;1.83;;;15.50;95.60;;;;;;4974601;28;20814;-61
2023/05/19 09:31:14;;;;;;;4.83;2.50;;;15.50;95.80;;;;;;4975233;28;20409;-60
2023/05/19 09:33:41;;;;;;;1.97;1.87;;;15.50;95.70;;;;;;4973763;28;20176;-60
2023/05/19 09:36:07;;;;;;;1.70;1.43;;;15.60;96.10;;;;;;4974231;28;20448;-62
2023/05/19 09:38:35;;;;;;;1.87;1.77;;;15.70;95.80;;;;;;4974046;28;20868;-61
2023/05/19 09:41:00;;;;;;;1.60;1.50;;;15.70;95.50;;;;;;4974102;28;20439;-61
2023/05/19 09:43:28;;;;;;;1.97;1.50;;;15.70;95.80;;;;;;4977325;28;20414;-61
2023/05/19 09:46:03;;;;;;;1.40;1.00;;;15.70;95.90;;;;;;4960825;28;20434;-61
2023/05/19 09:48:29;;;;;;;1.10;1.10;;;15.80;95.60;;;;;;4984935;28;20415;-61
2023/05/19 09:50:56;;;;;;;1.00;1.00;;;16.00;95.70;;;;;;4997818;28;20898;-61
2023/05/19 09:53:24;;;;;;;1.80;1.70;;;16.10;95.50;;;;;;4997389;28;20410;-61
2023/05/19 09:55:56;;;;;;;2.10;1.67;;;16.20;96.00;;;;;;4997495;28;20424;-61
2023/05/19 09:58:23;;;;;;;1.80;1.67;;;16.30;96.30;;;;;;4997595;28;20396;-61
2023/05/19 10:00:49;;;;;;;1.93;1.83;;;16.30;95.20;;;;;;4986098;28;20902;-61
2023/05/19 10:03:17;;;;;;;1.97;1.87;;;16.40;95.30;;;;;;4977586;28;20408;-61
2023/05/19 10:05:43;;;;;;;2.00;1.70;;;16.40;95.20;;;;;;4977672;28;20585;-62
2023/05/19 10:08:10;;;;;;;3.10;1.80;;;16.50;95.50;;;;;;4977684;28;20516;-62
2023/05/19 10:10:37;;;;;;;1.83;1.73;;;16.40;95.00;;;;;;4977628;28;20408;-62
2023/05/19 10:13:03;;;;;;;1.87;1.50;;;16.30;95.20;;;;;;4977278;28;20405;-61
2023/05/19 10:15:28;;;;;;;2.33;2.13;;;16.30;95.00;;;;;;4977566;28;20513;-61
2023/05/19 10:17:55;;;;;;;1.70;1.60;;;16.20;94.60;;;;;;4977769;28;20900;-60
2023/05/19 10:20:21;;;;;;;3.50;1.63;;;16.20;94.30;;;;;;4977615;28;20215;-63
2023/05/19 10:22:47;;;;;;;1.00;1.00;;;16.10;94.60;;;;;;4959448;28;20846;-61
2023/05/19 10:25:19;;;;;;;2.03;1.93;;;16.10;94.50;;;;;;4976241;28;20667;-60
2023/05/19 10:28:13;;;;;;;1.43;1.33;;;16.00;94.70;;;;;;4977146;28;20420;-62
2023/05/19 10:30:45;;;;;;;1.77;1.67;;;16.00;95.10;;;;;;4970995;28;20423;-60
2023/05/19 10:33:14;;;;;;;3.70;1.90;;;16.00;95.70;;;;;;4976892;28;20418;-61
2023/05/19 10:36:07;;;;;;;2.50;2.00;;;16.00;95.40;;;;;;4977392;28;20780;-61
2023/05/19 10:38:41;;;;;;;1.37;1.27;;;16.00;96.00;;;;;;4985442;28;20515;-61
2023/05/19 10:41:45;;;;;;;1.50;1.40;;;16.20;95.90;;;;;;4979118;28;20435;-63
2023/05/19 10:44:34;;;;;;;1.70;1.60;;;16.50;95.50;;;;;;4980243;28;20447;-62
2023/05/19 10:47:00;;;;;;;1.90;1.80;;;16.60;95.00;;;;;;4989455;28;20436;-62
2023/05/19 10:49:26;;;;;;;1.40;1.30;;;16.70;94.50;;;;;;4977955;28;20182;-62
2023/05/19 10:51:55;;;;;;;1.53;1.30;;;16.70;94.40;;;;;;4987538;28;20637;-64
2023/05/19 10:54:46;;;;;;;1.53;1.37;;;16.70;94.30;;;;;;4966995;28;20198;-61
2023/05/19 10:57:18;;;;;;;2.70;2.00;;;16.60;94.50;;;;;;4960224;28;20421;-62
2023/05/19 10:59:44;;;;;;;1.77;1.67;;;16.40;94.80;;;;;;4996343;28;20429;-62
2023/05/19 11:02:36;;;;;;;1.93;1.73;;;16.30;94.80;;;;;;4996447;28;20789;-62
2023/05/19 11:05:09;;;;;;;3.37;1.67;;;16.20;95.00;;;;;;4995628;28;20459;-61
2023/05/19 11:07:35;;;;;;;1.80;1.50;;;16.20;95.10;;;;;;4986396;28;20434;-62
2023/05/19 11:10:05;;;;;;;2.00;1.90;;;16.20;95.20;;;;;;4977669;28;20433;-60
2023/05/19 11:12:43;;;;;;;2.50;1.80;;;16.20;95.30;;;;;;4977929;28;20171;-62
2023/05/19 11:15:12;;;;;;;1.63;1.53;;;16.10;95.00;;;;;;4986692;28;20531;-62
2023/05/19 11:17:40;;;;;;;1.17;1.17;;;16.10;95.30;;;;;;4975279;28;20419;-62
2023/05/19 11:20:10;;;;;;;2.10;1.80;;;16.20;95.10;;;;;;4976933;28;20511;-63
2023/05/19 11:22:35;;;;;;;1.83;1.73;;;16.20;95.00;;;;;;4971876;28;20426;-63
2023/05/19 11:25:02;;;;;;;1.57;1.40;;;16.30;95.20;;;;;;4987228;28;20435;-63
2023/05/19 11:27:33;;;;;;;2.13;1.33;;;16.30;95.00;;;;;;4978033;28;20427;-62
2023/05/19 11:30:13;;;;;;;3.23;1.43;;;16.30;95.10;;;;;;4995131;28;20408;-62
2023/05/19 11:32:41;;;;;;;2.23;1.70;;;16.20;95.30;;;;;;4991693;28;20444;-62
2023/05/19 11:35:08;;;;;;;2.33;1.93;;;16.20;95.10;;;;;;4975863;28;20850;-63
2023/05/19 11:37:35;;;;;;;1.97;1.87;;;16.20;95.20;;;;;;4976306;28;20503;-62
2023/05/19 11:40:06;;;;;;;1.93;1.83;;;16.10;95.40;;;;;;4976135;28;20408;-62
2023/05/19 11:42:33;;;;;;;1.80;1.70;;;16.00;95.20;;;;;;4976223;28;20421;-62
2023/05/19 11:44:59;;;;;;;1.97;1.87;;;15.90;95.10;;;;;;4975649;28;20447;-62
2023/05/19 11:47:26;;;;;;;1.93;1.67;;;15.90;95.10;;;;;;4975754;28;20777;-62
2023/05/19 11:49:53;;;;;;;1.83;1.73;;;15.80;95.10;;;;;;4975997;28;20188;-62
2023/05/19 11:52:23;;;;;;;1.63;1.50;;;15.80;95.30;;;;;;4975327;28;20420;-62
2023/05/19 11:54:49;;;;;;;1.70;1.60;;;15.80;95.60;;;;;;4975290;28;20443;-62
2023/05/19 11:57:15;;;;;;;4.73;1.80;;;15.90;95.30;;;;;;4975778;28;20925;-62
2023/05/19 11:59:44;;;;;;;1.90;1.80;;;16.00;95.20;;;;;;4976378;28;20404;-62
2023/05/19 12:02:23;;;;;;;2.13;1.43;;;16.00;95.30;;;;;;4979182;28;20976;-63
2023/05/19 12:04:50;;;;;;;1.43;1.43;;;16.20;95.20;;;;;;4993129;28;20471;-62
2023/05/19 12:07:17;;;;;;;1.90;1.40;;;16.20;95.00;;;;;;4995037;28;20442;-62
2023/05/19 12:09:46;;;;;;;1.40;1.33;;;16.30;94.70;;;;;;4994867;28;20401;-63
2023/05/19 12:12:16;;;;;;;1.00;1.00;;;16.30;94.80;;;;;;4994919;28;20386;-62
2023/05/19 12:14:42;;;;;;;2.90;2.60;;;16.40;94.90;;;;;;4984480;28;20441;-63
2023/05/19 12:17:12;;;;;;;2.83;1.80;;;16.50;95.10;;;;;;4975857;28;20412;-63
2023/05/19 12:19:39;;;;;;;2.17;1.73;;;16.50;94.70;;;;;;4975523;28;20937;-61
2023/05/19 12:22:06;;;;;;;1.77;1.67;;;16.50;94.80;;;;;;4975555;28;20446;-62
2023/05/19 12:24:33;;;;;;;1.63;1.53;;;16.60;95.00;;;;;;4974985;28;20435;-62
2023/05/19 12:27:17;;;;;;;2.17;1.83;;;16.60;94.70;;;;;;4975348;28;20387;-63
2023/05/19 12:29:47;;;;;;;2.30;2.10;;;16.60;94.70;;;;;;4975157;28;20506;-62
2023/05/19 12:32:14;;;;;;;1.87;1.70;;;16.70;94.40;;;;;;4975066;28;20410;-62
2023/05/19 12:34:40;;;;;;;3.10;2.00;;;16.80;94.60;;;;;;4974655;28;20426;-62
2023/05/19 12:37:06;;;;;;;3.00;2.07;;;16.80;94.10;;;;;;4975157;28;20418;-62
2023/05/19 12:39:32;;;;;;;1.90;1.80;;;16.70;94.20;;;;;;4975223;28;20413;-62
2023/05/19 12:42:07;;;;;;;1.70;1.60;;;16.60;94.50;;;;;;4974921;28;20225;-62
2023/05/19 12:44:47;;;;;;;1.77;1.40;;;16.60;94.40;;;;;;4957041;28;20459;-61
2023/05/19 12:47:14;;;;;;;2.73;1.80;;;16.50;94.60;;;;;;4974790;28;20395;-63
2023/05/19 12:49:58;;;;;;;2.30;1.50;;;16.40;94.50;;;;;;4957596;28;20421;-63
2023/05/19 12:52:24;;;;;;;1.73;1.63;;;16.40;94.70;;;;;;4957578;28;20449;-62
2023/05/19 12:54:59;;;;;;;1.90;1.80;;;16.50;94.70;;;;;;4974720;28;20437;-62
2023/05/19 12:57:26;;;;;;;1.70;1.60;;;16.50;94.60;;;;;;4975012;28;20453;-62
2023/05/19 13:00:00;;;;;;;2.00;1.90;;;16.60;94.80;;;;;;4974486;28;20824;-63
2023/05/19 13:02:25;;;;;;;1.40;1.33;;;16.70;94.30;;;;;;4975104;28;20413;-62
2023/05/19 13:04:53;;;;;;;2.20;1.77;;;16.90;94.60;;;;;;4974431;28;20526;-62
2023/05/19 13:07:22;;;;;;;1.70;1.60;;;17.00;94.50;;;;;;4957669;28;20196;-63
2023/05/19 13:09:48;;;;;;;5.80;1.50;;;17.00;94.50;;;;;;4974923;28;20404;-63
2023/05/19 13:12:15;;;;;;;1.60;1.50;;;17.10;94.30;;;;;;4974817;28;20420;-64
2023/05/19 13:14:42;;;;;;;2.83;2.37;;;17.10;94.20;;;;;;4974131;28;20207;-63
2023/05/19 13:17:08;;;;;;;1.93;1.83;;;17.00;94.50;;;;;;4956699;28;20492;-62
2023/05/19 13:19:34;;;;;;;1.83;1.73;;;16.90;94.60;;;;;;4974726;28;20994;-63
2023/05/19 13:21:59;;;;;;;1.50;1.40;;;16.80;94.50;;;;;;4974224;28;20832;-62
2023/05/19 13:24:25;;;;;;;1.60;1.33;;;16.70;94.60;;;;;;4974137;28;20553;-62
2023/05/19 13:26:51;;;;;;;1.80;1.70;;;16.70;94.70;;;;;;4974641;28;20217;-62
2023/05/19 13:29:16;;;;;;;1.70;1.37;;;16.70;94.60;;;;;;4974245;28;20181;-63
2023/05/19 13:31:42;;;;;;;1.23;1.17;;;16.60;94.80;;;;;;4956936;28;20194;-63
2023/05/19 13:34:07;;;;;;;4.50;2.53;;;16.50;94.90;;;;;;4973646;28;20204;-62
2023/05/19 13:36:33;;;;;;;4.93;1.50;;;16.50;95.00;;;;;;4974056;28;20183;-62
2023/05/19 13:38:59;;;;;;;1.80;1.70;;;16.40;95.10;;;;;;4974100;28;20191;-63
2023/05/19 13:41:27;;;;;;;1.57;1.53;;;16.30;95.10;;;;;;4974068;28;20412;-62
2023/05/19 13:43:54;;;;;;;3.40;2.33;;;16.30;95.30;;;;;;4974261;28;20434;-62
2023/05/19 13:46:19;;;;;;;2.67;1.67;;;16.20;95.50;;;;;;4974289;28;20858;-62
2023/05/19 13:48:45;;;;;;;2.90;2.20;;;16.30;95.50;;;;;;4973786;28;20425;-63
2023/05/19 13:51:11;;;;;;;1.80;1.70;;;16.40;95.60;;;;;;4974303;28;20548;-62
2023/05/19 13:53:37;;;;;;;1.80;1.70;;;16.60;95.10;;;;;;4973877;28;20189;-63
2023/05/19 13:56:04;;;;;;;4.83;1.30;;;16.80;94.60;;;;;;4974256;28;20210;-62
2023/05/19 13:58:29;;;;;;;2.37;2.13;;;16.90;94.00;;;;;;4974168;28;20422;-63
2023/05/19 14:00:55;;;;;;;2.10;1.80;;;17.00;93.90;;;;;;4974172;28;20543;-63
2023/05/19 14:03:22;;;;;;;1.80;1.70;;;17.00;94.00;;;;;;4979693;28;20199;-63
2023/05/19 14:05:47;;;;;;;2.07;1.97;;;17.00;93.90;;;;;;4993320;28;20893;-63
2023/05/19 14:08:14;;;;;;;2.43;2.17;;;17.10;93.90;;;;;;4993265;28;20415;-62
2023/05/19 14:10:45;;;;;;;2.07;1.97;;;17.10;93.80;;;;;;4993387;28;20187;-62
2023/05/19 14:13:11;;;;;;;1.87;1.77;;;17.10;93.80;;;;;;4993167;28;20425;-62
2023/05/19 14:15:37;;;;;;;1.60;1.50;;;17.10;94.00;;;;;;4993321;28;20967;-63
2023/05/19 14:18:03;;;;;;;2.13;1.93;;;17.00;93.90;;;;;;4987531;28;20198;-63
2023/05/19 14:20:28;;;;;;;2.73;2.47;;;17.00;93.80;;;;;;4973916;28;20187;-63
2023/05/19 14:22:54;;;;;;;2.03;1.93;;;17.00;93.90;;;;;;4973951;28;20424;-63
2023/05/19 14:25:20;;;;;;;1.90;1.80;;;17.00;94.30;;;;;;4973309;28;20243;-62
2023/05/19 14:27:45;;;;;;;2.50;2.30;;;17.00;94.20;;;;;;4974359;28;20181;-62
2023/05/19 14:30:11;;;;;;;2.17;1.97;;;17.00;94.50;;;;;;4977504;28;20201;-62
2023/05/19 14:32:37;;;;;;;1.90;1.80;;;17.00;94.60;;;;;;4981447;28;20229;-63
2023/05/19 14:35:03;;;;;;;1.73;1.63;;;17.00;94.50;;;;;;4996408;28;20199;-62
2023/05/19 14:37:30;;;;;;;2.93;2.20;;;16.90;94.50;;;;;;4996549;28;20197;-62
2023/05/19 14:39:57;;;;;;;2.10;1.90;;;16.90;94.60;;;;;;4996770;28;20519;-62
2023/05/19 14:42:22;;;;;;;3.80;1.80;;;16.80;94.30;;;;;;4996792;28;20421;-63
2023/05/19 14:44:48;;;;;;;2.33;2.13;;;16.60;94.70;;;;;;4996184;28;20456;-63
2023/05/19 14:47:14;;;;;;;2.87;2.60;;;16.50;94.60;;;;;;4993222;28;20173;-63
2023/05/19 14:49:39;;;;;;;2.10;2.00;;;16.40;94.90;;;;;;4977298;28;20219;-63
2023/05/19 14:52:05;;;;;;;2.30;2.07;;;16.30;95.20;;;;;;4977255;28;20180;-63
2023/05/19 14:54:31;;;;;;;2.50;2.30;;;16.30;95.40;;;;;;4976777;28;20196;-63
2023/05/19 14:56:57;;;;;;;1.77;1.67;;;16.30;95.30;;;;;;4976928;28;20408;-63
2023/05/19 14:59:23;;;;;;;1.70;1.60;;;16.40;95.10;;;;;;4977110;28;20230;-63
2023/05/19 15:01:49;;;;;;;2.50;2.30;;;16.30;95.20;;;;;;4979022;28;20189;-63
2023/05/19 15:04:14;;;;;;;1.97;1.87;;;16.30;95.50;;;;;;4996075;28;20782;-63
2023/05/19 15:06:40;;;;;;;2.00;1.73;;;16.40;95.40;;;;;;4996251;28;20208;-64
2023/05/19 15:09:06;;;;;;;2.67;1.60;;;16.50;95.30;;;;;;4996499;28;20173;-63
2023/05/19 15:11:31;;;;;;;1.60;1.50;;;16.60;95.30;;;;;;4996339;28;20650;-63
2023/05/19 15:13:57;;;;;;;2.50;2.30;;;16.70;95.50;;;;;;4996037;28;20566;-63
2023/05/19 15:16:22;;;;;;;1.87;1.70;;;16.70;95.50;;;;;;4995689;28;20174;-63
2023/05/19 15:18:50;;;;;;;1.97;1.87;;;16.80;95.40;;;;;;4976431;28;20228;-63
2023/05/19 15:21:16;;;;;;;2.00;1.90;;;16.80;95.80;;;;;;4976577;28;20266;-63
2023/05/19 15:23:41;;;;;;;1.90;1.80;;;16.80;95.40;;;;;;4976312;28;20488;-63
2023/05/19 15:26:07;;;;;;;2.40;2.30;;;16.90;95.60;;;;;;4976362;28;20467;-63
2023/05/19 15:28:33;;;;;;;2.20;1.67;;;17.00;95.80;;;;;;4976386;28;20205;-62
2023/05/19 15:30:58;;;;;;;1.87;1.77;;;17.00;95.70;;;;;;4976238;28;20179;-63
2023/05/19 15:33:24;;;;;;;1.93;1.83;;;17.10;95.90;;;;;;4994060;28;20209;-63
2023/05/19 15:35:50;;;;;;;2.30;2.20;;;17.10;95.30;;;;;;4995571;28;20217;-63
2023/05/19 15:38:17;;;;;;;1.57;1.47;;;17.20;95.00;;;;;;4995921;28;20612;-63
2023/05/19 15:40:43;;;;;;;2.43;2.13;;;17.20;94.90;;;;;;4994971;28;20436;-63
2023/05/19 15:43:09;;;;;;;2.50;2.30;;;17.10;95.20;;;;;;4978134;28;20421;-65
2023/05/19 15:45:35;;;;;;;2.17;1.97;;;17.20;95.10;;;;;;4995420;28;20214;-63
2023/05/19 15:48:00;;;;;;;2.00;1.90;;;17.20;94.90;;;;;;4977828;28;20650;-63
2023/05/19 15:50:26;;;;;;;1.93;1.83;;;17.20;95.10;;;;;;4976213;28;20206;-63
2023/05/19 15:52:51;;;;;;;1.90;1.67;;;17.10;95.00;;;;;;4958732;28;20188;-63
2023/05/19 15:55:17;;;;;;;1.77;1.67;;;17.10;95.00;;;;;;4975832;28;20285;-64
2023/05/19 15:57:43;;;;;;;1.63;1.53;;;17.10;95.10;;;;;;4976046;28;20203;-63
2023/05/19 16:00:09;;;;;;;4.00;1.90;;;17.10;95.10;;;;;;4976056;28;20184;-62
2023/05/19 16:02:34;;;;;;;2.00;1.90;;;17.10;95.00;;;;;;4992264;28;20522;-62
2023/05/19 16:05:00;;;;;;;2.00;1.90;;;17.10;95.30;;;;;;4994694;28;20515;-62
2023/05/19 16:07:26;;;;;;;2.03;1.93;;;17.10;95.20;;;;;;4995363;28;20286;-62
2023/05/19 16:09:51;;;;;;;1.63;1.60;;;17.20;95.20;;;;;;4995104;28;20597;-62
2023/05/19 16:12:17;;;;;;;1.93;1.83;;;17.20;95.10;;;;;;4995121;28;20175;-62
2023/05/19 16:14:42;;;;;;;1.53;1.43;;;17.10;95.00;;;;;;4985403;28;20282;-61
2023/05/19 16:17:10;;;;;;;1.80;1.70;;;17.20;95.10;;;;;;4975662;28;20495;-61
2023/05/19 16:19:37;;;;;;;1.97;1.87;;;17.20;95.10;;;;;;4984387;28;20230;-63
2023/05/19 16:22:02;;;;;;;1.70;1.60;;;17.30;95.10;;;;;;4994887;28;20433;-62
2023/05/19 16:24:28;;;;;;;2.23;2.13;;;17.30;95.10;;;;;;4994710;28;20411;-62
2023/05/19 16:26:54;;;;;;;1.60;1.50;;;17.10;95.00;;;;;;4994960;28;20207;-62
2023/05/19 16:29:21;;;;;;;1.53;1.43;;;17.10;95.00;;;;;;4994851;28;20576;-62
2023/05/19 16:31:46;;;;;;;2.03;1.90;;;17.00;95.10;;;;;;4992944;28;20420;-62
2023/05/19 16:34:12;;;;;;;2.00;1.90;;;17.00;95.40;;;;;;4974832;28;20910;-61
2023/05/19 16:36:38;;;;;;;2.20;1.93;;;17.00;95.20;;;;;;4975137;28;20194;-62
2023/05/19 16:39:03;;;;;;;2.13;1.93;;;17.00;95.20;;;;;;4975274;28;20179;-62
2023/05/19 16:41:29;;;;;;;1.50;1.40;;;17.00;95.30;;;;;;4975290;28;20180;-62
2023/05/19 16:43:54;;;;;;;1.87;1.77;;;16.90;95.50;;;;;;4974635;28;20258;-61
2023/05/19 16:46:20;;;;;;;2.03;1.90;;;16.90;95.90;;;;;;4957659;28;20237;-62
2023/05/19 16:48:46;;;;;;;1.93;1.83;;;16.90;95.90;;;;;;4974837;28;20637;-61
2023/05/19 16:51:11;;;;;;;2.10;1.63;;;16.80;96.00;;;;;;4974461;28;20268;-62
2023/05/19 16:53:38;;;;;;;1.20;1.20;;;16.70;95.90;;;;;;4974518;28;20182;-61
2023/05/19 16:56:05;;;;;;;1.50;1.40;;;16.60;96.00;;;;;;4974838;28;20205;-62